sensor_id;sensor_type;location;lat;lon;timestamp;pressure;altitude;pressure_sealevel;temperature;humidity
78582;BME280;67878;46.242;5.974;2023-09-30T00:02:22;96219.09;;;24.13;55.39
78582;BME280;67878;46.242;5.974;2023-09-30T00:04:47;96214.63;;;24.14;55.13
78582;BME280;67878;46.242;5.974;2023-09-30T00:07:13;96218.09;;;24.14;55.21
78582;BME280;67878;46.242;5.974;2023-09-30T00:09:38;96223.19;;;24.16;55.42
78582;BME280;67878;46.242;5.974;2023-09-30T00:12:05;96233.91;;;24.14;55.32
78582;BME280;67878;46.242;5.974;2023-09-30T00:14:30;96231.28;;;24.14;55.24
78582;BME280;67878;46.242;5.974;2023-09-30T00:16:56;96216.59;;;24.12;55.63
78582;BME280;67878;46.242;5.974;2023-09-30T00:19:21;96221.53;;;24.15;55.45
78582;BME280;67878;46.242;5.974;2023-09-30T00:21:49;96224.38;;;24.13;55.80
78582;BME280;67878;46.242;5.974;2023-09-30T00:24:15;96208.69;;;24.12;55.80
78582;BME280;67878;46.242;5.974;2023-09-30T00:26:40;96209.03;;;24.09;55.78
78582;BME280;67878;46.242;5.974;2023-09-30T00:29:05;96211.50;;;24.10;55.79
78582;BME280;67878;46.242;5.974;2023-09-30T00:31:31;96208.88;;;24.10;55.76
78582;BME280;67878;46.242;5.974;2023-09-30T00:33:57;96215.94;;;24.10;55.82
78582;BME280;67878;46.242;5.974;2023-09-30T00:36:23;96215.94;;;24.10;55.79
78582;BME280;67878;46.242;5.974;2023-09-30T00:38:48;96214.31;;;24.09;55.95
78582;BME280;67878;46.242;5.974;2023-09-30T00:41:14;96212.47;;;24.09;55.73
78582;BME280;67878;46.242;5.974;2023-09-30T00:43:39;96216.94;;;24.09;55.63
78582;BME280;67878;46.242;5.974;2023-09-30T00:46:31;96214.31;;;24.09;55.90
78582;BME280;67878;46.242;5.974;2023-09-30T00:48:58;96224.03;;;24.08;56.03
78582;BME280;67878;46.242;5.974;2023-09-30T00:51:24;96217.75;;;24.09;55.95
78582;BME280;67878;46.242;5.974;2023-09-30T00:53:52;96227.50;;;24.09;56.15
78582;BME280;67878;46.242;5.974;2023-09-30T00:56:18;96220.59;;;24.08;55.66
78582;BME280;67878;46.242;5.974;2023-09-30T00:58:46;96211.66;;;24.09;55.91
78582;BME280;67878;46.242;5.974;2023-09-30T01:01:12;96210.03;;;24.08;55.99
78582;BME280;67878;46.242;5.974;2023-09-30T01:03:38;96212.66;;;24.08;55.96
78582;BME280;67878;46.242;5.974;2023-09-30T01:06:04;96222.56;;;24.06;55.74
78582;BME280;67878;46.242;5.974;2023-09-30T01:08:30;96221.41;;;24.08;56.05
78582;BME280;67878;46.242;5.974;2023-09-30T01:10:57;96225.00;;;24.07;55.70
78582;BME280;67878;46.242;5.974;2023-09-30T01:13:22;96218.09;;;24.06;56.00
78582;BME280;67878;46.242;5.974;2023-09-30T01:15:47;96218.91;;;24.07;56.10
78582;BME280;67878;46.242;5.974;2023-09-30T01:18:13;96212.81;;;24.06;55.86
78582;BME280;67878;46.242;5.974;2023-09-30T01:20:39;96204.09;;;24.06;56.19
78582;BME280;67878;46.242;5.974;2023-09-30T01:23:04;96206.72;;;24.06;55.70
78582;BME280;67878;46.242;5.974;2023-09-30T01:25:30;96203.28;;;24.05;56.12
78582;BME280;67878;46.242;5.974;2023-09-30T01:27:55;96207.88;;;24.03;55.58
78582;BME280;67878;46.242;5.974;2023-09-30T01:30:21;96214.81;;;24.04;56.07
78582;BME280;67878;46.242;5.974;2023-09-30T01:32:48;96210.38;;;24.05;55.63
78582;BME280;67878;46.242;5.974;2023-09-30T01:35:14;96201.78;;;24.03;56.00
78582;BME280;67878;46.242;5.974;2023-09-30T01:37:39;96198.16;;;24.04;55.68
78582;BME280;67878;46.242;5.974;2023-09-30T01:40:06;96206.06;;;24.04;55.56
78582;BME280;67878;46.242;5.974;2023-09-30T01:42:37;96208.88;;;24.02;55.80
78582;BME280;67878;46.242;5.974;2023-09-30T01:45:03;96196.66;;;24.01;55.61
78582;BME280;67878;46.242;5.974;2023-09-30T01:47:28;96193.06;;;24.02;55.58
78582;BME280;67878;46.242;5.974;2023-09-30T01:49:53;96190.56;;;24.01;55.56
78582;BME280;67878;46.242;5.974;2023-09-30T01:52:19;96187.13;;;24.00;55.66
78582;BME280;67878;46.242;5.974;2023-09-30T01:54:44;96187.94;;;24.01;55.63
78582;BME280;67878;46.242;5.974;2023-09-30T01:57:10;96184.28;;;24.02;55.53
78582;BME280;67878;46.242;5.974;2023-09-30T01:59:35;96184.63;;;23.99;55.79
78582;BME280;67878;46.242;5.974;2023-09-30T02:02:00;96179.34;;;23.99;55.41
78582;BME280;67878;46.242;5.974;2023-09-30T02:04:28;96179.34;;;23.99;55.86
78582;BME280;67878;46.242;5.974;2023-09-30T02:06:54;96180.22;;;23.99;55.96
78582;BME280;67878;46.242;5.974;2023-09-30T02:09:20;96176.44;;;23.93;55.65
78582;BME280;67878;46.242;5.974;2023-09-30T02:11:45;96183.00;;;23.98;55.91
78582;BME280;67878;46.242;5.974;2023-09-30T02:14:11;96176.09;;;23.97;55.77
78582;BME280;67878;46.242;5.974;2023-09-30T02:16:38;96188.28;;;23.98;55.83
78582;BME280;67878;46.242;5.974;2023-09-30T02:19:03;96186.66;;;23.97;55.85
78582;BME280;67878;46.242;5.974;2023-09-30T02:21:29;96185.78;;;23.96;55.28
78582;BME280;67878;46.242;5.974;2023-09-30T02:23:54;96182.34;;;23.96;55.87
78582;BME280;67878;46.242;5.974;2023-09-30T02:26:20;96184.81;;;23.97;55.46
78582;BME280;67878;46.242;5.974;2023-09-30T02:28:46;96190.25;;;23.96;55.64
78582;BME280;67878;46.242;5.974;2023-09-30T02:31:12;96177.88;;;23.96;55.66
78582;BME280;67878;46.242;5.974;2023-09-30T02:33:37;96178.88;;;23.95;55.41
78582;BME280;67878;46.242;5.974;2023-09-30T02:36:07;96178.88;;;23.95;55.26
78582;BME280;67878;46.242;5.974;2023-09-30T02:38:34;96173.78;;;23.93;55.20
78582;BME280;67878;46.242;5.974;2023-09-30T02:40:59;96175.59;;;23.93;55.40
78582;BME280;67878;46.242;5.974;2023-09-30T02:43:24;96173.59;;;23.95;55.52
78582;BME280;67878;46.242;5.974;2023-09-30T02:45:50;96180.72;;;23.94;55.33
78582;BME280;67878;46.242;5.974;2023-09-30T02:48:16;96177.25;;;23.94;55.48
78582;BME280;67878;46.242;5.974;2023-09-30T02:50:42;96171.16;;;23.93;55.25
78582;BME280;67878;46.242;5.974;2023-09-30T02:53:11;96175.59;;;23.93;55.11
78582;BME280;67878;46.242;5.974;2023-09-30T02:55:41;96183.50;;;23.93;55.47
78582;BME280;67878;46.242;5.974;2023-09-30T02:58:07;96188.78;;;23.93;55.32
78582;BME280;67878;46.242;5.974;2023-09-30T03:00:34;96180.84;;;23.93;55.00
78582;BME280;67878;46.242;5.974;2023-09-30T03:03:01;96179.22;;;23.92;55.26
78582;BME280;67878;46.242;5.974;2023-09-30T03:05:27;96187.00;;;23.93;55.06
78582;BME280;67878;46.242;5.974;2023-09-30T03:07:55;96187.00;;;23.93;55.11
78582;BME280;67878;46.242;5.974;2023-09-30T03:10:21;96180.84;;;23.93;55.20
78582;BME280;67878;46.242;5.974;2023-09-30T03:12:55;96166.03;;;23.92;55.49
78582;BME280;67878;46.242;5.974;2023-09-30T03:15:21;96162.41;;;23.93;54.92
78582;BME280;67878;46.242;5.974;2023-09-30T03:17:46;96172.13;;;23.92;55.06
78582;BME280;67878;46.242;5.974;2023-09-30T03:20:12;96176.59;;;23.92;54.86
78582;BME280;67878;46.242;5.974;2023-09-30T03:22:39;96178.41;;;23.91;54.75
78582;BME280;67878;46.242;5.974;2023-09-30T03:25:06;96179.22;;;23.92;54.88
78582;BME280;67878;46.242;5.974;2023-09-30T03:27:36;96182.69;;;23.92;55.13
78582;BME280;67878;46.242;5.974;2023-09-30T03:30:02;96184.50;;;23.92;54.86
78582;BME280;67878;46.242;5.974;2023-09-30T03:32:31;96189.78;;;23.92;54.97
78582;BME280;67878;46.242;5.974;2023-09-30T03:34:58;96182.88;;;23.91;54.86
78582;BME280;67878;46.242;5.974;2023-09-30T03:37:26;96188.78;;;23.93;54.61
78582;BME280;67878;46.242;5.974;2023-09-30T03:39:56;96185.50;;;23.91;54.95
78582;BME280;67878;46.242;5.974;2023-09-30T03:42:22;96177.59;;;23.91;54.92
78582;BME280;67878;46.242;5.974;2023-09-30T03:44:47;96175.78;;;23.91;54.89
78582;BME280;67878;46.242;5.974;2023-09-30T03:47:18;96172.31;;;23.91;54.62
78582;BME280;67878;46.242;5.974;2023-09-30T03:49:43;96168.81;;;23.90;54.56
78582;BME280;67878;46.242;5.974;2023-09-30T03:52:09;96162.72;;;23.90;54.79
78582;BME280;67878;46.242;5.974;2023-09-30T03:54:36;96171.47;;;23.90;54.69
78582;BME280;67878;46.242;5.974;2023-09-30T03:57:03;96163.56;;;23.90;54.24
78582;BME280;67878;46.242;5.974;2023-09-30T03:59:29;96158.94;;;23.92;54.60
78582;BME280;67878;46.242;5.974;2023-09-30T04:01:55;96156.50;;;23.91;54.25
78582;BME280;67878;46.242;5.974;2023-09-30T04:04:24;96163.56;;;23.90;54.35
78582;BME280;67878;46.242;5.974;2023-09-30T04:06:50;96177.59;;;23.91;54.52
78582;BME280;67878;46.242;5.974;2023-09-30T04:09:17;96177.59;;;23.91;54.27
78582;BME280;67878;46.242;5.974;2023-09-30T04:11:42;96178.75;;;23.88;54.54
78582;BME280;67878;46.242;5.974;2023-09-30T04:14:08;96172.47;;;23.89;54.66
78582;BME280;67878;46.242;5.974;2023-09-30T04:16:34;96174.28;;;23.89;54.53
78582;BME280;67878;46.242;5.974;2023-09-30T04:19:01;96179.56;;;23.89;54.50
78582;BME280;67878;46.242;5.974;2023-09-30T04:21:26;96171.81;;;23.87;54.39
78582;BME280;67878;46.242;5.974;2023-09-30T04:23:54;96171.00;;;23.87;54.54
78582;BME280;67878;46.242;5.974;2023-09-30T04:26:19;96163.25;;;23.85;54.60
78582;BME280;67878;46.242;5.974;2023-09-30T04:28:45;96163.25;;;23.85;54.16
78582;BME280;67878;46.242;5.974;2023-09-30T04:31:10;96173.81;;;23.85;54.57
78582;BME280;67878;46.242;5.974;2023-09-30T04:33:39;96168.53;;;23.85;54.59
78582;BME280;67878;46.242;5.974;2023-09-30T04:36:05;96166.88;;;23.84;54.47
78582;BME280;67878;46.242;5.974;2023-09-30T04:38:33;96179.09;;;23.85;54.27
78582;BME280;67878;46.242;5.974;2023-09-30T04:40:59;96185.19;;;23.86;54.21
78582;BME280;67878;46.242;5.974;2023-09-30T04:43:25;96178.59;;;23.82;54.40
78582;BME280;67878;46.242;5.974;2023-09-30T04:45:54;96174.78;;;23.84;54.17
78582;BME280;67878;46.242;5.974;2023-09-30T04:48:23;96171.31;;;23.84;54.50
78582;BME280;67878;46.242;5.974;2023-09-30T04:50:49;96175.78;;;23.83;54.19
78582;BME280;67878;46.242;5.974;2023-09-30T04:53:17;96169.84;;;23.81;54.32
78582;BME280;67878;46.242;5.974;2023-09-30T04:55:48;96175.78;;;23.83;54.46
78582;BME280;67878;46.242;5.974;2023-09-30T04:58:15;96175.13;;;23.81;54.27
78582;BME280;67878;46.242;5.974;2023-09-30T05:00:41;96183.69;;;23.83;54.10
78582;BME280;67878;46.242;5.974;2023-09-30T05:03:07;96195.25;;;23.82;54.21
78582;BME280;67878;46.242;5.974;2023-09-30T05:05:32;96195.25;;;23.82;53.99
78582;BME280;67878;46.242;5.974;2023-09-30T05:07:59;96200.53;;;23.82;54.05
78582;BME280;67878;46.242;5.974;2023-09-30T05:10:25;96204.97;;;23.82;54.22
78582;BME280;67878;46.242;5.974;2023-09-30T05:12:51;96211.22;;;23.81;54.10
78582;BME280;67878;46.242;5.974;2023-09-30T05:15:20;96206.13;;;23.79;54.30
78582;BME280;67878;46.242;5.974;2023-09-30T05:17:47;96206.97;;;23.80;54.35
78582;BME280;67878;46.242;5.974;2023-09-30T05:20:13;96207.78;;;23.80;54.24
78582;BME280;67878;46.242;5.974;2023-09-30T05:22:39;96213.06;;;23.80;53.97
78582;BME280;67878;46.242;5.974;2023-09-30T05:25:07;96210.56;;;23.79;53.78
78582;BME280;67878;46.242;5.974;2023-09-30T05:27:33;96215.03;;;23.78;54.21
78582;BME280;67878;46.242;5.974;2023-09-30T05:29:59;96215.03;;;23.78;53.82
78582;BME280;67878;46.242;5.974;2023-09-30T05:32:25;96207.31;;;23.77;53.85
78582;BME280;67878;46.242;5.974;2023-09-30T05:34:52;96211.56;;;23.78;53.89
78582;BME280;67878;46.242;5.974;2023-09-30T05:37:19;96214.22;;;23.78;53.83
78582;BME280;67878;46.242;5.974;2023-09-30T05:39:47;96210.75;;;23.77;54.14
78582;BME280;67878;46.242;5.974;2023-09-30T05:42:15;96209.28;;;23.75;54.03
78582;BME280;67878;46.242;5.974;2023-09-30T05:44:40;96210.91;;;23.76;53.90
78582;BME280;67878;46.242;5.974;2023-09-30T05:47:07;96213.53;;;23.76;53.64
78582;BME280;67878;46.242;5.974;2023-09-30T05:49:34;96208.28;;;23.76;53.65
78582;BME280;67878;46.242;5.974;2023-09-30T05:51:59;96220.50;;;23.77;53.79
78582;BME280;67878;46.242;5.974;2023-09-30T05:54:24;96219.00;;;23.74;53.71
78582;BME280;67878;46.242;5.974;2023-09-30T05:56:50;96216.81;;;23.69;53.56
78582;BME280;67878;46.242;5.974;2023-09-30T05:59:15;96226.72;;;23.76;53.66
78582;BME280;67878;46.242;5.974;2023-09-30T06:01:41;96226.91;;;23.74;53.49
78582;BME280;67878;46.242;5.974;2023-09-30T06:04:07;96226.06;;;23.74;53.87
78582;BME280;67878;46.242;5.974;2023-09-30T06:06:33;96227.88;;;23.73;53.59
78582;BME280;67878;46.242;5.974;2023-09-30T06:08:59;96229.72;;;23.73;53.76
78582;BME280;67878;46.242;5.974;2023-09-30T06:11:25;96234.97;;;23.73;53.24
78582;BME280;67878;46.242;5.974;2023-09-30T06:13:51;96250.00;;;23.72;53.77
78582;BME280;67878;46.242;5.974;2023-09-30T06:16:18;96249.16;;;23.71;53.23
78582;BME280;67878;46.242;5.974;2023-09-30T06:18:43;96251.81;;;23.71;53.67
78582;BME280;67878;46.242;5.974;2023-09-30T06:21:10;96248.34;;;23.71;53.54
78582;BME280;67878;46.242;5.974;2023-09-30T06:23:36;96249.16;;;23.71;53.61
78582;BME280;67878;46.242;5.974;2023-09-30T06:26:02;96244.19;;;23.68;53.61
78582;BME280;67878;46.242;5.974;2023-09-30T06:28:28;96248.34;;;23.71;53.28
78582;BME280;67878;46.242;5.974;2023-09-30T06:30:57;96250.28;;;23.69;53.22
78582;BME280;67878;46.242;5.974;2023-09-30T06:33:22;96257.38;;;23.68;53.51
78582;BME280;67878;46.242;5.974;2023-09-30T06:35:48;96256.53;;;23.68;53.33
78582;BME280;67878;46.242;5.974;2023-09-30T06:38:20;96260.84;;;23.69;53.50
78582;BME280;67878;46.242;5.974;2023-09-30T06:40:46;96260.53;;;23.72;53.05
78582;BME280;67878;46.242;5.974;2023-09-30T06:43:15;96260.53;;;23.72;53.44
78582;BME280;67878;46.242;5.974;2023-09-30T06:45:41;96272.09;;;23.71;53.38
78582;BME280;67878;46.242;5.974;2023-09-30T06:48:07;96272.91;;;23.71;53.15
78582;BME280;67878;46.242;5.974;2023-09-30T06:50:50;96282.47;;;23.73;53.57
78582;BME280;67878;46.242;5.974;2023-09-30T06:53:18;96281.63;;;23.72;53.56
78582;BME280;67878;46.242;5.974;2023-09-30T06:55:45;96281.63;;;23.72;53.20
78582;BME280;67878;46.242;5.974;2023-09-30T06:58:37;96285.91;;;23.73;53.38
78582;BME280;67878;46.242;5.974;2023-09-30T07:01:04;96284.09;;;23.74;53.60
78582;BME280;67878;46.242;5.974;2023-09-30T07:03:29;96295.50;;;23.74;53.34
78582;BME280;67878;46.242;5.974;2023-09-30T07:05:55;96293.69;;;23.75;53.72
78582;BME280;67878;46.242;5.974;2023-09-30T07:08:22;96293.50;;;23.76;53.64
78582;BME280;67878;46.242;5.974;2023-09-30T07:10:52;96303.06;;;23.77;53.50
78582;BME280;67878;46.242;5.974;2023-09-30T07:13:18;96302.88;;;23.79;53.47
78582;BME280;67878;46.242;5.974;2023-09-30T07:15:44;96303.41;;;23.82;53.35
78582;BME280;67878;46.242;5.974;2023-09-30T07:18:09;96312.78;;;23.85;53.32
78582;BME280;67878;46.242;5.974;2023-09-30T07:20:34;96299.28;;;23.88;53.38
78582;BME280;67878;46.242;5.974;2023-09-30T07:23:01;96296.94;;;23.93;53.57
78582;BME280;67878;46.242;5.974;2023-09-30T07:25:27;96297.78;;;23.93;52.89
78582;BME280;67878;46.242;5.974;2023-09-30T07:27:52;96309.66;;;23.98;52.94
78582;BME280;67878;46.242;5.974;2023-09-30T07:30:18;96304.38;;;23.98;52.76
78582;BME280;67878;46.242;5.974;2023-09-30T07:32:44;96298.09;;;23.99;53.40
78582;BME280;67878;46.242;5.974;2023-09-30T07:35:11;96301.56;;;23.99;53.04
78582;BME280;67878;46.242;5.974;2023-09-30T07:37:37;96306.00;;;23.99;53.42
78582;BME280;67878;46.242;5.974;2023-09-30T07:40:03;96299.75;;;24.00;53.19
78582;BME280;67878;46.242;5.974;2023-09-30T07:42:28;96304.22;;;23.99;52.91
78582;BME280;67878;46.242;5.974;2023-09-30T07:44:53;96308.66;;;23.99;53.15
78582;BME280;67878;46.242;5.974;2023-09-30T07:47:22;96309.66;;;23.98;53.30
78582;BME280;67878;46.242;5.974;2023-09-30T07:49:48;96309.66;;;23.98;53.46
78582;BME280;67878;46.242;5.974;2023-09-30T07:52:13;96317.41;;;23.99;53.28
78582;BME280;67878;46.242;5.974;2023-09-30T07:54:39;96318.22;;;24.00;53.12
78582;BME280;67878;46.242;5.974;2023-09-30T07:57:04;96325.16;;;24.01;53.07
78582;BME280;67878;46.242;5.974;2023-09-30T07:59:29;96323.31;;;24.01;52.71
78582;BME280;67878;46.242;5.974;2023-09-30T08:01:55;96324.16;;;24.02;52.96
78582;BME280;67878;46.242;5.974;2023-09-30T08:04:22;96324.81;;;24.04;53.02
78582;BME280;67878;46.242;5.974;2023-09-30T08:06:48;96325.81;;;24.03;52.97
78582;BME280;67878;46.242;5.974;2023-09-30T08:09:14;96325.63;;;24.04;52.98
78582;BME280;67878;46.242;5.974;2023-09-30T08:11:39;96317.91;;;24.03;53.04
78582;BME280;67878;46.242;5.974;2023-09-30T08:14:05;96321.34;;;24.03;52.89
78582;BME280;67878;46.242;5.974;2023-09-30T08:16:38;96322.16;;;24.04;53.03
78582;BME280;67878;46.242;5.974;2023-09-30T08:19:04;96327.44;;;24.04;53.03
78582;BME280;67878;46.242;5.974;2023-09-30T08:21:30;96317.72;;;24.04;53.00
78582;BME280;67878;46.242;5.974;2023-09-30T08:23:59;96317.72;;;24.04;53.23
78582;BME280;67878;46.242;5.974;2023-09-30T08:26:25;96317.72;;;24.04;52.89
78582;BME280;67878;46.242;5.974;2023-09-30T08:28:50;96325.63;;;24.04;52.86
78582;BME280;67878;46.242;5.974;2023-09-30T08:31:17;96318.72;;;24.03;53.35
78582;BME280;67878;46.242;5.974;2023-09-30T08:33:42;96324.00;;;24.03;53.41
78582;BME280;67878;46.242;5.974;2023-09-30T08:36:10;96317.91;;;24.03;53.13
78582;BME280;67878;46.242;5.974;2023-09-30T08:38:38;96316.75;;;24.05;53.22
78582;BME280;67878;46.242;5.974;2023-09-30T08:41:04;96316.56;;;24.07;53.41
78582;BME280;67878;46.242;5.974;2023-09-30T08:43:30;96321.69;;;24.08;53.23
78582;BME280;67878;46.242;5.974;2023-09-30T08:45:58;96317.06;;;24.10;53.38
78582;BME280;67878;46.242;5.974;2023-09-30T08:48:26;96308.16;;;24.11;53.39
78582;BME280;67878;46.242;5.974;2023-09-30T08:50:55;96305.31;;;24.13;53.64
78582;BME280;67878;46.242;5.974;2023-09-30T08:53:23;96303.53;;;24.13;53.53
78582;BME280;67878;46.242;5.974;2023-09-30T08:55:52;96309.44;;;24.15;54.03
78582;BME280;67878;46.242;5.974;2023-09-30T08:58:19;96320.84;;;24.16;53.47
78582;BME280;67878;46.242;5.974;2023-09-30T09:00:45;96325.13;;;24.17;53.67
78582;BME280;67878;46.242;5.974;2023-09-30T09:03:11;96324.31;;;24.16;53.52
78582;BME280;67878;46.242;5.974;2023-09-30T09:05:36;96319.84;;;24.17;53.40
78582;BME280;67878;46.242;5.974;2023-09-30T09:08:02;96319.50;;;24.20;53.80
78582;BME280;67878;46.242;5.974;2023-09-30T09:10:27;96316.88;;;24.20;53.78
78582;BME280;67878;46.242;5.974;2023-09-30T09:12:57;96324.78;;;24.20;53.64
78582;BME280;67878;46.242;5.974;2023-09-30T09:15:25;96326.44;;;24.21;53.57
78582;BME280;67878;46.242;5.974;2023-09-30T09:17:51;96319.50;;;24.20;53.70
78582;BME280;67878;46.242;5.974;2023-09-30T09:20:26;96310.78;;;24.20;53.49
78582;BME280;67878;46.242;5.974;2023-09-30T09:22:53;96316.88;;;24.20;53.66
78582;BME280;67878;46.242;5.974;2023-09-30T09:25:21;96315.88;;;24.21;53.53
78582;BME280;67878;46.242;5.974;2023-09-30T09:27:50;96309.63;;;24.22;53.92
78582;BME280;67878;46.242;5.974;2023-09-30T09:30:26;96309.44;;;24.24;54.92
78582;BME280;67878;46.242;5.974;2023-09-30T09:32:59;96310.25;;;24.24;54.14
78582;BME280;67878;46.242;5.974;2023-09-30T09:35:25;96307.63;;;24.24;54.13
78582;BME280;67878;46.242;5.974;2023-09-30T09:40:36;96316.03;;;24.28;53.46
78582;BME280;67878;46.242;5.974;2023-09-30T09:43:04;96301.03;;;24.28;53.23
78582;BME280;67878;46.242;5.974;2023-09-30T09:45:33;96303.47;;;24.30;53.09
78582;BME280;67878;46.242;5.974;2023-09-30T09:47:59;96299.22;;;24.29;53.50
78582;BME280;67878;46.242;5.974;2023-09-30T09:50:25;96299.88;;;24.31;53.29
78582;BME280;67878;46.242;5.974;2023-09-30T09:52:51;96295.41;;;24.31;53.12
78582;BME280;67878;46.242;5.974;2023-09-30T09:55:19;96297.03;;;24.32;53.21
78582;BME280;67878;46.242;5.974;2023-09-30T09:57:45;96304.00;;;24.33;53.50
78582;BME280;67878;46.242;5.974;2023-09-30T10:00:14;96297.72;;;24.34;53.09
78582;BME280;67878;46.242;5.974;2023-09-30T10:02:40;96297.56;;;24.36;53.00
78582;BME280;67878;46.242;5.974;2023-09-30T10:05:07;96291.44;;;24.35;52.76
78582;BME280;67878;46.242;5.974;2023-09-30T10:07:36;96295.88;;;24.35;52.51
78582;BME280;67878;46.242;5.974;2023-09-30T10:10:07;96298.53;;;24.35;52.59
78582;BME280;67878;46.242;5.974;2023-09-30T10:12:38;96301.97;;;24.35;52.58
78582;BME280;67878;46.242;5.974;2023-09-30T10:20:36;96290.78;;;24.33;52.35
78582;BME280;67878;46.242;5.974;2023-09-30T10:25:45;96281.88;;;24.34;52.35
78582;BME280;67878;46.242;5.974;2023-09-30T10:28:39;96283.69;;;24.34;51.72
78582;BME280;67878;46.242;5.974;2023-09-30T10:36:33;96264.88;;;24.37;51.81
78582;BME280;67878;46.242;5.974;2023-09-30T10:39:02;96270.16;;;24.37;52.17
78582;BME280;67878;46.242;5.974;2023-09-30T10:46:56;96269.66;;;24.42;52.15
78582;BME280;67878;46.242;5.974;2023-09-30T10:51:49;96264.38;;;24.42;52.45
78582;BME280;67878;46.242;5.974;2023-09-30T10:54:21;96265.34;;;24.41;52.44
78582;BME280;67878;46.242;5.974;2023-09-30T10:56:48;96268.66;;;24.43;52.59
78582;BME280;67878;46.242;5.974;2023-09-30T10:59:22;96267.00;;;24.42;52.50
78582;BME280;67878;46.242;5.974;2023-09-30T11:01:49;96273.94;;;24.43;52.79
78582;BME280;67878;46.242;5.974;2023-09-30T11:04:14;96261.72;;;24.42;52.65
78582;BME280;67878;46.242;5.974;2023-09-30T11:06:41;96255.44;;;24.43;52.82
78582;BME280;67878;46.242;5.974;2023-09-30T11:09:07;96246.53;;;24.44;52.90
78582;BME280;67878;46.242;5.974;2023-09-30T11:11:44;96242.94;;;24.45;52.79
78582;BME280;67878;46.242;5.974;2023-09-30T11:16:42;96250.84;;;24.45;53.26
78582;BME280;67878;46.242;5.974;2023-09-30T11:19:08;96243.91;;;24.44;52.71
78582;BME280;67878;46.242;5.974;2023-09-30T11:21:34;96243.25;;;24.42;52.83
78582;BME280;67878;46.242;5.974;2023-09-30T11:24:01;96239.59;;;24.43;52.75
78582;BME280;67878;46.242;5.974;2023-09-30T11:26:30;96238.13;;;24.40;52.71
78582;BME280;67878;46.242;5.974;2023-09-30T11:29:28;96237.97;;;24.42;53.02
78582;BME280;67878;46.242;5.974;2023-09-30T11:31:54;96236.31;;;24.41;52.51
78582;BME280;67878;46.242;5.974;2023-09-30T11:34:31;96224.09;;;24.39;52.70
78582;BME280;67878;46.242;5.974;2023-09-30T11:36:57;96228.56;;;24.39;52.42
78582;BME280;67878;46.242;5.974;2023-09-30T11:39:23;96223.28;;;24.39;52.63
78582;BME280;67878;46.242;5.974;2023-09-30T11:41:49;96218.97;;;24.38;52.58
78582;BME280;67878;46.242;5.974;2023-09-30T11:44:15;96210.25;;;24.37;52.73
78582;BME280;67878;46.242;5.974;2023-09-30T11:46:58;96206.94;;;24.35;52.28
78582;BME280;67878;46.242;5.974;2023-09-30T11:49:37;96216.53;;;24.36;52.44
78582;BME280;67878;46.242;5.974;2023-09-30T11:52:10;96212.22;;;24.35;52.57
78582;BME280;67878;46.242;5.974;2023-09-30T11:54:40;96215.88;;;24.34;52.49
78582;BME280;67878;46.242;5.974;2023-09-30T11:57:14;96218.69;;;24.33;52.13
78582;BME280;67878;46.242;5.974;2023-09-30T11:59:43;96222.16;;;24.33;52.50
78582;BME280;67878;46.242;5.974;2023-09-30T12:02:09;96212.41;;;24.34;52.53
78582;BME280;67878;46.242;5.974;2023-09-30T12:04:36;96214.03;;;24.35;52.07
78582;BME280;67878;46.242;5.974;2023-09-30T12:07:02;96208.75;;;24.35;52.05
78582;BME280;67878;46.242;5.974;2023-09-30T12:09:28;96207.28;;;24.32;52.13
78582;BME280;67878;46.242;5.974;2023-09-30T12:11:54;96209.09;;;24.32;52.19
78582;BME280;67878;46.242;5.974;2023-09-30T12:14:21;96198.75;;;24.30;52.02
78582;BME280;67878;46.242;5.974;2023-09-30T12:16:47;96205.81;;;24.30;52.29
78582;BME280;67878;46.242;5.974;2023-09-30T12:19:19;96207.63;;;24.29;51.84
78582;BME280;67878;46.242;5.974;2023-09-30T12:21:46;96205.81;;;24.30;52.03
78582;BME280;67878;46.242;5.974;2023-09-30T12:24:13;96198.06;;;24.28;52.11
78582;BME280;67878;46.242;5.974;2023-09-30T12:26:45;96199.09;;;24.27;51.97
78582;BME280;67878;46.242;5.974;2023-09-30T12:29:18;96207.00;;;24.27;52.13
78582;BME280;67878;46.242;5.974;2023-09-30T12:31:44;96198.22;;;24.27;51.99
78582;BME280;67878;46.242;5.974;2023-09-30T12:34:11;96194.78;;;24.26;51.97
78582;BME280;67878;46.242;5.974;2023-09-30T12:36:38;96202.69;;;24.26;52.01
78582;BME280;67878;46.242;5.974;2023-09-30T12:39:04;96197.75;;;24.23;51.92
78582;BME280;67878;46.242;5.974;2023-09-30T12:41:37;96194.97;;;24.25;52.15
78582;BME280;67878;46.242;5.974;2023-09-30T12:44:02;96185.38;;;24.24;52.17
78582;BME280;67878;46.242;5.974;2023-09-30T12:46:27;96183.75;;;24.23;51.88
78582;BME280;67878;46.242;5.974;2023-09-30T12:48:54;96186.38;;;24.23;52.01
78582;BME280;67878;46.242;5.974;2023-09-30T12:51:20;96181.94;;;24.23;52.17
78582;BME280;67878;46.242;5.974;2023-09-30T12:53:45;96188.69;;;24.26;52.25
78582;BME280;67878;46.242;5.974;2023-09-30T12:56:11;96180.09;;;24.24;52.08
78582;BME280;67878;46.242;5.974;2023-09-30T12:58:36;96182.41;;;24.27;51.94
78582;BME280;67878;46.242;5.974;2023-09-30T13:01:03;96179.59;;;24.28;52.04
78582;BME280;67878;46.242;5.974;2023-09-30T13:03:29;96177.78;;;24.29;51.87
78582;BME280;67878;46.242;5.974;2023-09-30T13:05:54;96172.50;;;24.29;51.75
78582;BME280;67878;46.242;5.974;2023-09-30T13:08:20;96171.69;;;24.28;51.98
78582;BME280;67878;46.242;5.974;2023-09-30T13:10:45;96169.84;;;24.29;51.64
78582;BME280;67878;46.242;5.974;2023-09-30T13:13:11;96164.41;;;24.30;52.12
78582;BME280;67878;46.242;5.974;2023-09-30T13:15:37;96158.13;;;24.31;51.37
78582;BME280;67878;46.242;5.974;2023-09-30T13:18:03;96156.50;;;24.30;51.53
78582;BME280;67878;46.242;5.974;2023-09-30T13:20:29;96159.13;;;24.30;50.51
78582;BME280;67878;46.242;5.974;2023-09-30T13:22:54;96156.50;;;24.30;50.40
78582;BME280;67878;46.242;5.974;2023-09-30T13:25:19;96150.56;;;24.28;50.00
78582;BME280;67878;46.242;5.974;2023-09-30T13:27:45;96158.00;;;24.25;49.88